createdAt,value
2023-04-20T00:00:02.095Z,100.00
2023-04-20T00:02:40.160Z,100.00
2023-04-20T00:05:08.331Z,100.00
2023-04-20T00:07:35.893Z,100.00
2023-04-20T00:10:04.382Z,100.00
2023-04-20T00:12:31.603Z,100.00
2023-04-20T00:14:58.702Z,100.00
2023-04-20T00:17:26.213Z,100.00
2023-04-20T00:19:53.450Z,100.00
2023-04-20T00:22:20.530Z,100.00
2023-04-20T00:24:47.636Z,100.00
2023-04-20T00:27:14.680Z,100.00
2023-04-20T00:29:41.761Z,100.00
2023-04-20T00:32:08.876Z,100.00
2023-04-20T00:34:36.252Z,100.00
2023-04-20T00:37:03.376Z,100.00
2023-04-20T00:40:02.276Z,100.00
2023-04-20T00:42:31.031Z,100.00
2023-04-20T00:44:58.151Z,100.00
2023-04-20T00:47:25.513Z,100.00
2023-04-20T00:49:53.880Z,100.00
2023-04-20T00:52:21.499Z,100.00
2023-04-20T00:54:49.137Z,100.00
2023-04-20T00:57:19.863Z,100.00
2023-04-20T00:59:46.984Z,99.50
2023-04-20T01:02:14.395Z,99.88
2023-04-20T01:04:42.033Z,99.47
2023-04-20T01:07:09.113Z,99.65
2023-04-20T01:09:39.451Z,99.57
2023-04-20T01:13:16.010Z,99.45
2023-04-20T01:15:43.171Z,99.87
2023-04-20T01:18:10.325Z,99.81
2023-04-20T01:20:38.605Z,99.20
2023-04-20T01:23:37.909Z,99.50
2023-04-20T01:26:13.718Z,99.87
2023-04-20T01:28:41.260Z,100.00
2023-04-20T01:31:09.755Z,99.96
2023-04-20T01:33:36.934Z,100.00
2023-04-20T01:36:06.117Z,100.00
2023-04-20T01:38:34.965Z,100.00
2023-04-20T01:41:06.949Z,100.00
2023-04-20T01:43:36.263Z,100.00
2023-04-20T01:46:04.121Z,100.00
2023-04-20T01:48:31.371Z,100.00
2023-04-20T01:50:58.595Z,100.00
2023-04-20T01:53:25.753Z,100.00
2023-04-20T01:55:52.995Z,100.00
2023-04-20T01:58:22.936Z,100.00
2023-04-20T02:00:50.115Z,100.00
2023-04-20T02:03:17.475Z,100.00
2023-04-20T02:05:44.811Z,100.00
2023-04-20T02:08:12.098Z,100.00
2023-04-20T02:10:39.986Z,100.00
2023-04-20T02:13:09.360Z,100.00
2023-04-20T02:15:37.575Z,100.00
2023-04-20T02:18:04.960Z,100.00
2023-04-20T02:20:32.055Z,100.00
2023-04-20T02:22:59.227Z,100.00
2023-04-20T02:25:26.336Z,100.00
2023-04-20T02:27:53.610Z,100.00
2023-04-20T02:30:20.889Z,100.00
2023-04-20T02:32:48.017Z,100.00
2023-04-20T02:35:16.458Z,100.00
2023-04-20T02:37:44.332Z,100.00
2023-04-20T02:40:13.947Z,100.00
2023-04-20T02:42:41.345Z,100.00
2023-04-20T02:45:11.304Z,100.00
2023-04-20T02:47:39.340Z,100.00
2023-04-20T02:50:09.686Z,100.00
2023-04-20T02:52:53.133Z,100.00
2023-04-20T02:55:20.331Z,100.00
2023-04-20T02:57:51.173Z,100.00
2023-04-20T03:00:19.846Z,100.00
2023-04-20T03:03:00.770Z,100.00
2023-04-20T03:05:28.318Z,100.00
2023-04-20T03:07:56.917Z,100.00
2023-04-20T03:10:25.740Z,100.00
2023-04-20T03:12:58.587Z,100.00
2023-04-20T03:15:31.560Z,100.00
2023-04-20T03:18:04.140Z,100.00
2023-04-20T03:20:32.260Z,100.00
2023-04-20T03:22:59.688Z,100.00
2023-04-20T03:25:28.093Z,100.00
2023-04-20T03:27:59.996Z,100.00
2023-04-20T03:30:27.612Z,100.00
2023-04-20T03:33:01.109Z,100.00
2023-04-20T03:35:28.608Z,100.00
2023-04-20T03:37:55.916Z,100.00
2023-04-20T03:40:23.253Z,100.00
2023-04-20T03:42:50.349Z,100.00
2023-04-20T03:45:17.686Z,100.00
2023-04-20T03:47:44.810Z,100.00
2023-04-20T03:50:12.016Z,100.00
2023-04-20T03:52:40.122Z,100.00
2023-04-20T03:55:39.085Z,100.00
2023-04-20T03:58:10.820Z,100.00
2023-04-20T04:00:48.495Z,100.00
2023-04-20T04:03:16.030Z,100.00
2023-04-20T04:05:43.388Z,100.00
2023-04-20T04:08:10.555Z,100.00
2023-04-20T04:10:38.091Z,100.00
2023-04-20T04:16:55.468Z,100.00
2023-04-20T04:19:22.754Z,100.00
2023-04-20T04:21:50.209Z,100.00
2023-04-20T04:24:17.824Z,100.00
2023-04-20T04:26:58.692Z,100.00
2023-04-20T04:29:28.096Z,100.00
2023-04-20T04:32:00.076Z,100.00
2023-04-20T04:34:30.029Z,100.00
2023-04-20T04:36:58.073Z,100.00
2023-04-20T04:39:37.672Z,100.00
2023-04-20T04:42:13.214Z,100.00
2023-04-20T04:44:42.883Z,100.00
2023-04-20T04:47:14.556Z,100.00
2023-04-20T04:49:42.817Z,100.00
2023-04-20T04:52:09.872Z,100.00
2023-04-20T04:54:37.085Z,100.00
2023-04-20T04:57:04.261Z,100.00
2023-04-20T04:59:31.422Z,100.00
2023-04-20T05:01:58.592Z,100.00
2023-04-20T05:04:25.855Z,100.00
2023-04-20T05:06:52.989Z,100.00
2023-04-20T05:09:20.319Z,100.00
2023-04-20T05:11:48.217Z,100.00
2023-04-20T05:14:15.475Z,100.00
2023-04-20T05:16:42.731Z,100.00
2023-04-20T05:19:09.948Z,100.00
2023-04-20T05:21:38.325Z,100.00
2023-04-20T05:24:06.632Z,100.00
2023-04-20T05:26:33.683Z,100.00
2023-04-20T05:29:00.795Z,100.00
2023-04-20T05:31:28.210Z,100.00
2023-04-20T05:33:55.347Z,100.00
2023-04-20T05:36:22.541Z,100.00
2023-04-20T05:38:49.695Z,100.00
2023-04-20T05:41:16.793Z,100.00
2023-04-20T05:43:43.918Z,100.00
2023-04-20T05:46:11.177Z,100.00
2023-04-20T05:48:38.354Z,100.00
2023-04-20T05:51:05.659Z,100.00
2023-04-20T05:53:32.726Z,100.00
2023-04-20T05:55:59.911Z,100.00
2023-04-20T05:58:27.623Z,100.00
2023-04-20T06:00:55.048Z,100.00
2023-04-20T06:03:22.272Z,100.00
2023-04-20T06:05:49.635Z,100.00
2023-04-20T06:08:16.793Z,100.00
2023-04-20T06:10:43.880Z,100.00
2023-04-20T06:13:11.407Z,100.00
2023-04-20T06:15:38.657Z,100.00
2023-04-20T06:18:06.028Z,100.00
2023-04-20T06:20:33.184Z,99.23
2023-04-20T06:23:00.350Z,99.24
2023-04-20T06:25:27.963Z,99.11
2023-04-20T06:27:55.039Z,99.13
2023-04-20T06:30:22.534Z,98.77
2023-04-20T06:32:49.751Z,98.41
2023-04-20T06:35:17.347Z,98.25
2023-04-20T06:37:44.448Z,97.43
2023-04-20T06:40:11.873Z,97.34
2023-04-20T06:42:39.826Z,97.79
2023-04-20T06:45:07.856Z,96.98
2023-04-20T06:47:35.216Z,97.33
2023-04-20T06:50:07.428Z,97.67
2023-04-20T06:52:34.585Z,98.90
2023-04-20T06:55:01.714Z,99.67
2023-04-20T06:57:28.847Z,99.61
2023-04-20T06:59:56.078Z,99.83
2023-04-20T07:02:23.296Z,100.00
2023-04-20T07:04:50.576Z,100.00
2023-04-20T07:07:17.745Z,100.00
2023-04-20T07:09:44.819Z,100.00
2023-04-20T07:12:22.679Z,100.00
2023-04-20T07:14:49.781Z,100.00
2023-04-20T07:17:16.950Z,100.00
2023-04-20T07:19:44.232Z,100.00
2023-04-20T07:22:11.351Z,100.00
2023-04-20T07:24:38.508Z,100.00
2023-04-20T07:27:05.862Z,100.00
2023-04-20T07:29:34.210Z,100.00
2023-04-20T07:32:01.436Z,100.00
2023-04-20T07:34:28.599Z,98.84
2023-04-20T07:38:05.031Z,98.29
2023-04-20T07:40:32.415Z,98.89
2023-04-20T07:42:59.869Z,98.91
2023-04-20T07:45:27.266Z,97.91
2023-04-20T07:47:55.800Z,98.63
2023-04-20T07:50:23.265Z,96.42
2023-04-20T07:52:50.676Z,97.04
2023-04-20T07:55:18.072Z,98.13
2023-04-20T07:57:45.645Z,98.08
2023-04-20T08:00:13.595Z,98.68
2023-04-20T08:02:41.196Z,97.21
2023-04-20T08:05:10.415Z,95.89
2023-04-20T08:07:38.229Z,94.63
2023-04-20T08:10:07.202Z,94.29
2023-04-20T08:12:34.425Z,94.21
2023-04-20T08:15:04.477Z,94.33
2023-04-20T08:17:31.634Z,92.60
2023-04-20T08:19:58.946Z,92.41
2023-04-20T08:22:30.167Z,92.43
2023-04-20T08:24:58.087Z,94.36
2023-04-20T08:27:26.037Z,93.02
2023-04-20T08:29:53.289Z,94.55
2023-04-20T08:32:22.829Z,93.17
2023-04-20T08:34:50.834Z,92.91
2023-04-20T08:38:12.475Z,93.03
2023-04-20T08:40:43.692Z,92.39
2023-04-20T08:43:11.591Z,92.68
2023-04-20T08:46:11.294Z,90.19
2023-04-20T08:48:39.958Z,89.46
2023-04-20T08:51:07.368Z,90.18
2023-04-20T08:53:34.703Z,89.11
2023-04-20T08:57:10.494Z,90.93
2023-04-20T08:59:38.606Z,92.98
2023-04-20T09:02:13.001Z,92.40
2023-04-20T09:04:41.203Z,92.84
2023-04-20T09:07:40.635Z,92.90
2023-04-20T09:10:08.016Z,93.51
2023-04-20T09:12:42.853Z,93.65
2023-04-20T09:15:11.328Z,94.11
2023-04-20T09:17:41.413Z,93.44
2023-04-20T09:20:09.436Z,93.93
2023-04-20T09:22:38.171Z,94.47
2023-04-20T09:25:19.418Z,95.33
2023-04-20T09:27:58.450Z,96.16
2023-04-20T09:30:36.988Z,96.29
2023-04-20T09:33:08.143Z,96.71
2023-04-20T09:35:36.379Z,97.70
2023-04-20T09:38:03.514Z,96.10
2023-04-20T09:40:31.428Z,95.60
2023-04-20T09:43:03.739Z,97.97
2023-04-20T10:17:09.773Z,92.70
2023-04-20T10:19:43.284Z,90.56
2023-04-20T10:22:12.514Z,91.13
2023-04-20T10:24:40.367Z,91.16
2023-04-20T10:27:21.304Z,89.19
2023-04-20T10:29:49.066Z,91.88
2023-04-20T10:32:27.107Z,88.60
2023-04-20T10:35:06.906Z,88.82
2023-04-20T10:37:34.840Z,90.77
2023-04-20T10:40:07.382Z,91.25
2023-04-20T10:42:45.369Z,92.92
2023-04-20T10:45:13.041Z,91.33
2023-04-20T10:47:45.576Z,93.06
2023-04-20T10:50:13.122Z,92.23
2023-04-20T10:52:42.118Z,90.69
2023-04-20T10:55:29.606Z,90.48
2023-04-20T10:57:57.227Z,90.18
2023-04-20T11:00:29.700Z,90.74
2023-04-20T11:02:57.766Z,88.52
2023-04-20T11:05:27.537Z,88.53
2023-04-20T11:07:59.791Z,90.04
2023-04-20T11:10:42.309Z,89.84
2023-04-20T11:13:23.580Z,86.55
2023-04-20T11:15:51.572Z,86.72
2023-04-20T11:18:18.925Z,88.17
2023-04-20T11:20:53.329Z,85.71
2023-04-20T11:23:22.335Z,84.03
2023-04-20T11:25:57.086Z,84.14
2023-04-20T11:28:26.043Z,83.94
2023-04-20T11:30:53.315Z,84.48
2023-04-20T11:33:31.120Z,85.08
2023-04-20T11:35:59.396Z,86.24
2023-04-20T11:38:28.670Z,85.08
2023-04-20T11:40:56.282Z,87.56
2023-04-20T11:43:23.550Z,86.62
2023-04-20T11:45:50.630Z,86.84
2023-04-20T11:48:19.023Z,84.83
2023-04-20T11:50:46.373Z,82.86
2023-04-20T11:53:15.005Z,85.10
2023-04-20T11:55:42.085Z,85.66
2023-04-20T11:58:09.425Z,84.89
2023-04-20T12:00:37.105Z,85.10
2023-04-20T12:03:04.442Z,86.03
2023-04-20T12:05:31.807Z,86.36
2023-04-20T12:07:59.089Z,85.61
2023-04-20T12:10:26.326Z,84.89
2023-04-20T12:12:53.896Z,85.84
2023-04-20T12:15:21.020Z,85.48
2023-04-20T12:17:48.169Z,85.85
2023-04-20T12:20:15.431Z,85.29
2023-04-20T12:22:42.585Z,85.84
2023-04-20T12:25:10.037Z,84.30
2023-04-20T12:27:37.511Z,82.42
2023-04-20T12:30:04.969Z,82.58
2023-04-20T12:32:32.188Z,83.35
2023-04-20T12:34:59.424Z,83.15
2023-04-20T12:37:27.408Z,81.63
2023-04-20T12:39:54.598Z,81.78
2023-04-20T12:42:21.717Z,82.16
2023-04-20T12:44:48.826Z,81.44
2023-04-20T12:47:16.093Z,83.12
2023-04-20T12:49:43.246Z,83.37
2023-04-20T12:52:10.978Z,83.13
2023-04-20T12:54:38.068Z,84.46
2023-04-20T12:57:05.274Z,83.98
2023-04-20T12:59:32.468Z,85.58
2023-04-20T13:01:59.642Z,84.71
2023-04-20T13:04:26.985Z,85.84
2023-04-20T13:06:54.227Z,85.67
2023-04-20T13:09:21.309Z,85.67
2023-04-20T13:11:48.530Z,85.52
2023-04-20T13:14:15.782Z,83.69
2023-04-20T13:16:42.988Z,85.25
2023-04-20T13:19:10.166Z,85.43
2023-04-20T13:21:37.208Z,87.75
2023-04-20T13:24:04.517Z,91.11
2023-04-20T13:26:32.077Z,92.30
2023-04-20T13:28:59.177Z,91.12
2023-04-20T13:31:26.484Z,91.61
2023-04-20T13:33:54.958Z,90.48
2023-04-20T13:36:23.367Z,90.76
2023-04-20T13:38:53.587Z,88.92
2023-04-20T13:41:20.742Z,88.36
2023-04-20T13:43:47.906Z,88.20
2023-04-20T13:46:16.081Z,88.48
2023-04-20T13:48:43.205Z,89.40
2023-04-20T13:51:10.391Z,88.71
2023-04-20T13:53:37.645Z,87.38
2023-04-20T13:56:05.428Z,87.20
2023-04-20T13:58:32.520Z,86.03
2023-04-20T14:00:59.730Z,86.44
2023-04-20T14:03:27.510Z,87.32
2023-04-20T14:05:54.848Z,87.45
2023-04-20T14:08:23.483Z,88.99
2023-04-20T14:10:51.019Z,89.53
2023-04-20T14:13:18.287Z,89.16
2023-04-20T14:15:45.491Z,88.59
2023-04-20T14:18:13.039Z,89.80
2023-04-20T14:20:40.285Z,89.96
2023-04-20T14:23:09.399Z,90.92
2023-04-20T14:25:36.893Z,91.44
2023-04-20T14:28:04.482Z,90.49
2023-04-20T14:30:31.762Z,91.63
2023-04-20T14:33:01.010Z,91.11
2023-04-20T14:35:28.914Z,90.71
2023-04-20T14:37:56.220Z,90.06
2023-04-20T14:40:24.027Z,88.79
2023-04-20T14:42:51.395Z,87.39
2023-04-20T14:45:18.666Z,86.75
2023-04-20T14:47:46.004Z,85.68
2023-04-20T14:50:13.208Z,84.81
2023-04-20T14:52:40.315Z,86.48
2023-04-20T14:55:07.818Z,83.92
2023-04-20T14:57:35.062Z,84.08
2023-04-20T15:00:02.166Z,83.34
2023-04-20T15:02:29.535Z,83.42
2023-04-20T15:04:58.802Z,83.27
2023-04-20T15:07:26.207Z,81.51
2023-04-20T15:09:53.636Z,81.24
2023-04-20T15:12:21.190Z,82.62
2023-04-20T15:14:48.403Z,82.55
2023-04-20T15:17:15.967Z,84.01
2023-04-20T15:19:46.268Z,82.49
2023-04-20T15:22:13.853Z,82.94
2023-04-20T15:24:41.164Z,83.69
2023-04-20T15:27:08.369Z,83.55
2023-04-20T15:29:36.319Z,83.58
2023-04-20T15:32:03.914Z,84.20
2023-04-20T15:34:31.384Z,84.65
2023-04-20T15:36:58.534Z,85.12
2023-04-20T15:39:25.827Z,84.77
2023-04-20T15:41:53.378Z,85.74
2023-04-20T15:44:20.813Z,85.89
2023-04-20T15:46:48.089Z,87.34
2023-04-20T15:49:15.383Z,86.81
2023-04-20T15:51:43.837Z,86.28
2023-04-20T15:55:20.385Z,86.64
2023-04-20T15:57:47.557Z,86.93
2023-04-20T16:00:15.274Z,86.71
2023-04-20T16:02:42.578Z,86.87
2023-04-20T16:05:10.030Z,86.72
2023-04-20T16:07:37.197Z,86.83
2023-04-20T16:10:06.854Z,86.81
2023-04-20T16:12:34.142Z,87.43
2023-04-20T16:15:01.878Z,86.72
2023-04-20T16:17:29.107Z,86.47
2023-04-20T16:19:56.443Z,86.12
2023-04-20T16:22:23.791Z,86.92
2023-04-20T16:24:51.066Z,85.83
2023-04-20T16:27:19.062Z,86.75
2023-04-20T16:29:46.087Z,86.81
2023-04-20T16:32:13.652Z,87.03
2023-04-20T16:34:41.206Z,86.79
2023-04-20T16:37:08.422Z,86.78
2023-04-20T16:39:36.697Z,86.75
2023-04-20T16:42:04.227Z,86.90
2023-04-20T16:44:31.462Z,86.27
2023-04-20T16:46:58.756Z,86.22
2023-04-20T16:49:26.344Z,86.34
2023-04-20T16:51:53.535Z,85.81
2023-04-20T16:54:21.668Z,85.33
2023-04-20T16:56:48.885Z,83.47
2023-04-20T16:59:16.199Z,82.91
2023-04-20T17:01:43.386Z,82.66
2023-04-20T17:04:11.558Z,82.76
2023-04-20T17:06:38.840Z,84.19
2023-04-20T17:09:07.285Z,83.98
2023-04-20T17:11:39.784Z,83.92
2023-04-20T17:14:08.783Z,84.90
2023-04-20T17:16:36.151Z,84.59
2023-04-20T17:19:04.059Z,84.92
2023-04-20T17:21:31.359Z,84.89
2023-04-20T17:23:58.508Z,85.88
2023-04-20T17:26:25.631Z,85.72
2023-04-20T17:28:53.721Z,86.69
2023-04-20T17:31:21.000Z,86.85
2023-04-20T17:33:48.136Z,86.95
2023-04-20T17:36:15.304Z,86.63
2023-04-20T17:38:43.342Z,84.83
2023-04-20T17:41:10.610Z,86.06
2023-04-20T17:43:40.588Z,85.41
2023-04-20T17:46:08.327Z,84.75
2023-04-20T17:48:35.922Z,84.95
2023-04-20T17:51:06.142Z,83.84
2023-04-20T17:53:33.274Z,84.96
2023-04-20T17:56:00.431Z,84.47
2023-04-20T17:58:27.466Z,85.85
2023-04-20T18:00:54.677Z,85.45
2023-04-20T18:03:21.946Z,86.68
2023-04-20T18:05:49.195Z,86.01
2023-04-20T18:08:17.859Z,86.93
2023-04-20T18:10:45.157Z,87.36
2023-04-20T18:13:12.373Z,87.32
2023-04-20T18:15:39.698Z,88.04
2023-04-20T18:18:06.790Z,87.84
2023-04-20T18:20:33.915Z,87.97
2023-04-20T18:23:01.488Z,87.54
2023-04-20T18:25:28.593Z,87.91
2023-04-20T18:27:55.749Z,87.53
2023-04-20T18:30:22.935Z,86.75
2023-04-20T18:32:50.236Z,86.54
2023-04-20T18:35:17.380Z,86.41
2023-04-20T18:37:44.525Z,86.81
2023-04-20T18:40:13.061Z,86.72
2023-04-20T18:42:41.302Z,86.37
2023-04-20T18:45:09.102Z,86.06
2023-04-20T18:47:36.340Z,85.77
2023-04-20T18:50:03.809Z,86.29
2023-04-20T18:52:34.620Z,86.16
2023-04-20T18:55:01.776Z,86.47
2023-04-20T18:57:29.234Z,86.13
2023-04-20T18:59:56.613Z,85.99
2023-04-20T19:02:24.454Z,85.45
2023-04-20T19:04:51.738Z,86.00
2023-04-20T19:07:19.230Z,86.26
2023-04-20T19:09:46.380Z,86.26
2023-04-20T19:12:13.549Z,85.90
2023-04-20T19:14:40.701Z,86.19
2023-04-20T19:17:08.009Z,86.02
2023-04-20T19:19:35.204Z,86.11
2023-04-20T19:22:03.713Z,86.34
2023-04-20T19:24:32.255Z,86.15
2023-04-20T19:26:59.659Z,86.13
2023-04-20T19:29:26.852Z,86.41
2023-04-20T19:31:54.088Z,87.28
2023-04-20T19:34:21.679Z,87.54
2023-04-20T19:36:48.923Z,87.75
2023-04-20T19:39:16.524Z,88.18
2023-04-20T19:41:43.939Z,88.36
2023-04-20T19:44:42.768Z,87.60
2023-04-20T19:47:09.952Z,87.83
2023-04-20T19:49:37.305Z,88.52
2023-04-20T19:52:04.485Z,87.66
2023-04-20T19:54:31.729Z,88.13
2023-04-20T19:56:58.920Z,88.37
2023-04-20T19:59:26.852Z,88.64
2023-04-20T20:01:54.123Z,88.14
2023-04-20T20:04:21.684Z,88.77
2023-04-20T20:06:50.786Z,88.41
2023-04-20T20:09:18.971Z,88.63
2023-04-20T20:11:50.104Z,88.67
2023-04-20T20:14:17.876Z,88.59
2023-04-20T20:16:45.273Z,88.78
2023-04-20T20:19:12.459Z,89.10
2023-04-20T20:21:39.545Z,89.57
2023-04-20T20:24:06.743Z,89.39
2023-04-20T20:26:33.874Z,89.29
2023-04-20T20:29:01.322Z,89.61
2023-04-20T20:31:28.542Z,89.36
2023-04-20T20:33:55.758Z,89.43
2023-04-20T20:36:23.136Z,89.57
2023-04-20T20:38:50.695Z,89.50
2023-04-20T20:41:20.639Z,89.28
2023-04-20T20:43:49.854Z,89.27
2023-04-20T20:46:17.289Z,89.26
2023-04-20T20:48:44.408Z,89.24
2023-04-20T20:51:11.823Z,88.86
2023-04-20T20:53:39.026Z,89.26
2023-04-20T20:56:06.630Z,89.17
2023-04-20T20:58:33.782Z,89.68
2023-04-20T21:01:00.982Z,89.62
2023-04-20T21:03:28.404Z,89.72
2023-04-20T21:05:55.670Z,90.29
2023-04-20T21:08:22.785Z,90.93
2023-04-20T21:10:50.021Z,90.63
2023-04-20T21:13:19.057Z,90.65
2023-04-20T21:15:46.707Z,90.08
2023-04-20T21:18:14.097Z,90.31
2023-04-20T21:20:41.134Z,89.85
2023-04-20T21:23:08.193Z,90.08
2023-04-20T21:25:35.560Z,89.65
2023-04-20T21:28:02.612Z,89.52
2023-04-20T21:30:32.450Z,88.34
2023-04-20T21:32:59.608Z,88.73
2023-04-20T21:35:26.686Z,88.24
2023-04-20T21:37:53.711Z,86.90
2023-04-20T21:40:20.901Z,85.89
2023-04-20T21:42:48.014Z,86.84
2023-04-20T21:45:15.165Z,87.61
2023-04-20T21:47:42.342Z,86.07
2023-04-20T21:50:09.993Z,85.00
2023-04-20T21:52:37.032Z,84.28
2023-04-20T21:55:04.283Z,83.90
2023-04-20T21:57:31.389Z,83.68
2023-04-20T21:59:58.440Z,83.19
2023-04-20T22:02:25.939Z,83.45
2023-04-20T22:04:53.339Z,83.18
2023-04-20T22:07:21.011Z,84.03
2023-04-20T22:09:48.103Z,83.55
2023-04-20T22:12:16.014Z,83.02
2023-04-20T22:14:43.991Z,83.32
2023-04-20T22:17:11.974Z,82.93
2023-04-20T22:19:39.042Z,83.30
2023-04-20T22:22:06.130Z,83.63
2023-04-20T22:24:34.507Z,82.41
2023-04-20T22:27:02.411Z,83.66
2023-04-20T22:29:29.492Z,83.33
2023-04-20T22:31:56.556Z,84.37
2023-04-20T22:34:23.700Z,83.80
2023-04-20T22:36:50.914Z,82.35
2023-04-20T22:39:18.370Z,82.31
2023-04-20T22:41:45.713Z,83.07
2023-04-20T22:44:13.330Z,81.93
2023-04-20T22:46:40.980Z,81.95
2023-04-20T22:49:08.935Z,82.46
2023-04-20T22:51:36.173Z,84.06
2023-04-20T22:54:04.383Z,85.73
2023-04-20T22:56:32.139Z,86.13
2023-04-20T22:58:59.246Z,84.99
2023-04-20T23:01:26.563Z,85.32
2023-04-20T23:03:53.852Z,87.93
2023-04-20T23:06:22.264Z,89.69
2023-04-20T23:08:49.634Z,91.28
2023-04-20T23:11:17.025Z,91.87
2023-04-20T23:13:44.508Z,92.71
2023-04-20T23:16:11.740Z,93.02
2023-04-20T23:18:39.104Z,93.63
2023-04-20T23:21:06.619Z,94.27
2023-04-20T23:23:33.771Z,95.15
2023-04-20T23:26:00.876Z,95.74
2023-04-20T23:28:27.983Z,95.64
2023-04-20T23:30:55.108Z,95.30
2023-04-20T23:33:22.181Z,95.40
2023-04-20T23:35:49.314Z,95.28
2023-04-20T23:38:16.395Z,95.32
2023-04-20T23:40:43.449Z,95.65
2023-04-20T23:43:10.520Z,94.90
2023-04-20T23:45:37.624Z,93.74
2023-04-20T23:48:05.192Z,92.99
2023-04-20T23:51:41.609Z,93.65
2023-04-20T23:54:08.731Z,93.56
2023-04-20T23:56:35.808Z,94.46
2023-04-20T23:59:02.911Z,94.43
